Time;durP1;ratioP1;P1;durP2;ratioP2;P2;SDS_P1;SDS_P2;PMS_P1;PMS_P2;Temp;Humidity;BMP_temperature;BMP_pressure;BME280_temperature;BME280_humidity;BME280_pressure;Samples;Min_cycle;Max_cycle;Signal;HPM_P1;HPM_P2
2023/11/23 00:00:01;;;;;;;15.05;7.82;;;24.30;99.90;;;;;;5018474;28;20049;-47
2023/11/23 00:02:27;;;;;;;18.10;8.10;;;24.30;99.90;;;;;;5023857;28;20481;-47
2023/11/23 00:04:53;;;;;;;14.73;8.20;;;24.30;99.90;;;;;;5029023;28;20095;-46
2023/11/23 00:07:19;;;;;;;15.25;8.10;;;24.30;99.90;;;;;;5025286;28;20037;-46
2023/11/23 00:09:44;;;;;;;15.48;7.72;;;24.20;99.90;;;;;;5018021;28;20022;-47
2023/11/23 00:12:10;;;;;;;13.18;7.40;;;24.20;99.90;;;;;;5010982;28;20478;-46
2023/11/23 00:14:36;;;;;;;13.73;7.80;;;24.20;99.90;;;;;;5025598;28;20421;-47
2023/11/23 00:17:02;;;;;;;11.45;7.07;;;24.20;99.90;;;;;;5020749;28;20024;-47
2023/11/23 00:19:28;;;;;;;13.55;7.60;;;24.20;99.90;;;;;;5025012;28;20033;-47
2023/11/23 00:21:54;;;;;;;14.13;7.65;;;24.10;99.90;;;;;;5027777;28;20064;-48
2023/11/23 00:24:19;;;;;;;12.32;7.43;;;24.20;99.90;;;;;;5023415;28;20081;-47
2023/11/23 00:26:45;;;;;;;11.52;7.00;;;24.10;99.90;;;;;;5003384;28;20041;-46
2023/11/23 00:29:11;;;;;;;15.45;7.38;;;24.20;99.90;;;;;;5030769;28;20485;-48
2023/11/23 00:31:37;;;;;;;13.43;7.90;;;24.10;99.90;;;;;;5029273;28;20033;-48
2023/11/23 00:34:05;;;;;;;11.43;7.43;;;24.10;99.90;;;;;;5028191;28;20033;-46
2023/11/23 00:36:37;;;;;;;13.35;6.72;;;24.10;99.90;;;;;;5031207;28;20082;-47
2023/11/23 00:39:04;;;;;;;10.48;6.78;;;24.10;99.90;;;;;;5028430;28;20021;-46
2023/11/23 00:41:30;;;;;;;14.60;7.97;;;24.10;99.90;;;;;;5030855;28;20029;-46
2023/11/23 00:43:57;;;;;;;12.02;6.60;;;24.10;99.90;;;;;;5017808;28;20527;-46
2023/11/23 00:46:23;;;;;;;11.23;6.68;;;24.10;99.90;;;;;;5020398;28;20486;-45
2023/11/23 00:48:48;;;;;;;13.90;6.85;;;24.10;99.90;;;;;;5021891;28;20062;-46
2023/11/23 00:51:16;;;;;;;13.48;7.43;;;24.00;99.90;;;;;;5022296;28;20018;-46
2023/11/23 00:53:42;;;;;;;11.48;6.43;;;24.00;99.90;;;;;;5025920;28;20032;-46
2023/11/23 00:56:08;;;;;;;10.48;7.13;;;24.10;99.90;;;;;;5027424;28;20051;-45
2023/11/23 00:58:34;;;;;;;10.80;6.78;;;24.10;99.90;;;;;;5032626;28;20104;-46
2023/11/23 01:01:00;;;;;;;11.32;7.20;;;24.00;99.90;;;;;;5032434;28;20035;-46
2023/11/23 01:03:27;;;;;;;11.30;6.90;;;24.00;99.90;;;;;;5034682;28;20041;-47
2023/11/23 01:05:53;;;;;;;9.82;6.80;;;24.00;99.90;;;;;;5023755;28;20088;-47
2023/11/23 01:08:19;;;;;;;10.45;6.53;;;24.00;99.90;;;;;;5030600;28;20033;-46
2023/11/23 01:10:44;;;;;;;8.90;6.03;;;24.00;99.90;;;;;;5034908;28;20096;-46
2023/11/23 01:13:12;;;;;;;10.45;6.13;;;24.00;99.90;;;;;;5034214;28;20029;-46
2023/11/23 01:15:38;;;;;;;10.30;6.45;;;24.00;99.90;;;;;;5024581;28;20375;-47
2023/11/23 01:18:04;;;;;;;9.75;6.00;;;24.00;99.90;;;;;;5013944;28;20441;-47
2023/11/23 01:20:29;;;;;;;10.27;6.35;;;23.90;99.90;;;;;;5025393;28;20033;-47
2023/11/23 01:22:56;;;;;;;9.10;6.00;;;23.90;99.90;;;;;;5015136;28;20033;-47
2023/11/23 01:25:21;;;;;;;13.18;6.68;;;23.90;99.90;;;;;;5033605;28;20095;-47
2023/11/23 01:27:47;;;;;;;11.07;6.28;;;23.90;99.90;;;;;;5003137;28;20426;-46
2023/11/23 01:30:13;;;;;;;10.82;6.93;;;23.90;99.90;;;;;;5028417;28;20470;-46
2023/11/23 01:32:39;;;;;;;9.52;5.63;;;23.90;99.90;;;;;;5031081;28;20116;-47
2023/11/23 01:35:06;;;;;;;11.98;6.35;;;23.90;99.90;;;;;;5030841;28;20033;-45
2023/11/23 01:37:35;;;;;;;9.93;5.97;;;23.90;99.90;;;;;;5035018;28;20034;-45
2023/11/23 01:40:03;;;;;;;10.68;5.80;;;23.90;99.90;;;;;;5034791;28;20695;-47
2023/11/23 01:42:29;;;;;;;12.00;6.72;;;23.90;99.90;;;;;;5027868;28;20022;-46
2023/11/23 01:44:55;;;;;;;11.43;6.60;;;23.90;99.90;;;;;;5027448;28;20010;-46
2023/11/23 01:47:21;;;;;;;9.95;6.05;;;23.90;99.90;;;;;;5026900;28;20045;-46
2023/11/23 01:49:48;;;;;;;10.85;5.57;;;23.90;99.90;;;;;;5030421;28;20386;-47
2023/11/23 01:52:15;;;;;;;9.07;5.90;;;23.90;99.90;;;;;;5029322;28;20053;-46
2023/11/23 01:54:41;;;;;;;9.10;5.68;;;23.90;99.90;;;;;;5032822;28;20477;-46
2023/11/23 01:57:08;;;;;;;7.75;5.63;;;23.90;99.90;;;;;;5032813;28;20025;-46
2023/11/23 01:59:35;;;;;;;9.02;5.50;;;23.80;99.90;;;;;;5034508;28;20413;-46
2023/11/23 02:02:03;;;;;;;9.95;5.47;;;23.80;99.90;;;;;;5034937;28;20111;-46
2023/11/23 02:04:29;;;;;;;11.00;5.28;;;23.80;99.90;;;;;;5029745;28;20037;-46
2023/11/23 02:06:55;;;;;;;8.60;6.15;;;23.80;99.90;;;;;;5032334;28;20159;-48
2023/11/23 02:09:21;;;;;;;10.32;4.95;;;23.80;99.90;;;;;;5022599;28;20374;-46
2023/11/23 02:11:47;;;;;;;9.70;5.90;;;23.80;99.90;;;;;;5021087;28;20025;-49
2023/11/23 02:14:14;;;;;;;7.85;5.13;;;23.80;99.90;;;;;;5025774;28;20044;-48
2023/11/23 02:16:39;;;;;;;8.18;5.30;;;23.70;99.90;;;;;;5022841;28;20022;-48
2023/11/23 02:19:06;;;;;;;10.07;5.65;;;23.70;99.90;;;;;;5028811;28;20021;-47
2023/11/23 02:21:31;;;;;;;7.38;5.18;;;23.70;99.90;;;;;;5024348;28;20124;-47
2023/11/23 02:23:57;;;;;;;7.15;4.47;;;23.70;99.90;;;;;;5030566;28;20419;-47
2023/11/23 02:26:23;;;;;;;7.45;4.53;;;23.70;99.90;;;;;;5028841;28;20033;-47
2023/11/23 02:28:49;;;;;;;10.13;5.65;;;23.70;99.90;;;;;;5033147;28;20022;-46
2023/11/23 02:31:15;;;;;;;9.55;5.38;;;23.70;99.90;;;;;;5032391;28;20060;-46
2023/11/23 02:33:40;;;;;;;7.93;4.90;;;23.70;99.90;;;;;;5031642;28;20132;-46
2023/11/23 02:36:06;;;;;;;8.88;4.85;;;23.70;99.90;;;;;;5033239;28;20540;-46
2023/11/23 02:38:32;;;;;;;5.68;4.45;;;23.70;99.90;;;;;;5015932;28;20025;-46
2023/11/23 02:40:58;;;;;;;7.03;4.38;;;23.70;99.90;;;;;;5015490;28;20076;-46
2023/11/23 02:43:25;;;;;;;11.35;4.43;;;23.70;99.90;;;;;;5014394;28;20510;-47
2023/11/23 02:45:54;;;;;;;8.15;5.15;;;23.60;99.90;;;;;;5030269;28;20117;-46
2023/11/23 02:48:20;;;;;;;6.95;4.30;;;23.70;99.90;;;;;;5029158;28;20544;-46
2023/11/23 02:50:46;;;;;;;7.35;4.07;;;23.60;99.90;;;;;;5031427;28;20029;-45
2023/11/23 02:53:27;;;;;;;7.40;4.68;;;23.60;99.90;;;;;;5033204;28;20033;-46
2023/11/23 02:55:54;;;;;;;6.18;4.18;;;23.60;99.90;;;;;;5031395;28;20018;-45
2023/11/23 02:58:20;;;;;;;5.32;3.92;;;23.60;99.90;;;;;;5032166;28;20029;-47
2023/11/23 03:00:48;;;;;;;8.73;4.18;;;23.60;99.90;;;;;;5014830;28;20014;-46
2023/11/23 03:03:14;;;;;;;8.00;4.38;;;23.60;99.90;;;;;;5015151;28;20064;-46
2023/11/23 03:05:39;;;;;;;5.40;4.00;;;23.60;99.90;;;;;;5021317;28;20097;-46
2023/11/23 03:08:06;;;;;;;7.65;3.92;;;23.60;99.90;;;;;;5027094;28;20037;-47
2023/11/23 03:10:35;;;;;;;7.95;4.10;;;23.60;99.90;;;;;;5027194;28;20068;-47
2023/11/23 03:13:02;;;;;;;5.10;3.42;;;23.60;99.90;;;;;;5032252;28;20125;-47
2023/11/23 03:15:29;;;;;;;5.28;3.38;;;23.60;99.90;;;;;;5027690;28;20029;-46
2023/11/23 03:17:55;;;;;;;5.47;4.10;;;23.50;99.90;;;;;;5028771;28;20033;-47
2023/11/23 03:20:21;;;;;;;5.95;3.95;;;23.50;99.90;;;;;;5019849;28;20100;-46
2023/11/23 03:22:47;;;;;;;5.72;3.83;;;23.50;99.90;;;;;;5023227;28;20109;-47
2023/11/23 03:25:12;;;;;;;5.85;3.90;;;23.50;99.90;;;;;;5020304;28;20049;-47
2023/11/23 03:27:38;;;;;;;5.05;3.65;;;23.50;99.90;;;;;;5014727;28;20032;-46
2023/11/23 03:30:05;;;;;;;6.22;3.67;;;23.50;99.90;;;;;;5024053;28;20021;-47
2023/11/23 03:32:32;;;;;;;4.28;3.15;;;23.50;99.90;;;;;;5029249;28;20026;-47
2023/11/23 03:34:59;;;;;;;6.90;4.10;;;23.40;99.90;;;;;;5028378;28;20029;-46
2023/11/23 03:37:25;;;;;;;6.45;3.40;;;23.40;99.90;;;;;;5031738;28;20021;-47
2023/11/23 03:39:52;;;;;;;4.88;3.38;;;23.40;99.90;;;;;;5030222;28;20044;-47
2023/11/23 03:42:18;;;;;;;5.45;3.45;;;23.40;99.90;;;;;;5014025;28;20022;-46
2023/11/23 03:44:44;;;;;;;5.75;3.40;;;23.40;99.90;;;;;;5011316;28;20022;-47
2023/11/23 03:47:10;;;;;;;4.85;3.40;;;23.40;99.90;;;;;;5030083;28;20091;-46
2023/11/23 03:49:35;;;;;;;5.32;3.78;;;23.40;99.90;;;;;;5031406;28;20036;-47
2023/11/23 03:52:01;;;;;;;6.65;3.67;;;23.30;99.90;;;;;;5031453;28;20025;-47
2023/11/23 03:54:27;;;;;;;4.60;2.97;;;23.40;99.90;;;;;;5014623;28;20554;-47
2023/11/23 03:56:53;;;;;;;3.33;2.28;;;23.40;99.90;;;;;;5031399;28;20382;-47
2023/11/23 03:59:19;;;;;;;4.25;3.00;;;23.30;99.90;;;;;;5031886;28;20058;-47
2023/11/23 04:01:47;;;;;;;5.47;3.10;;;23.30;99.90;;;;;;5032004;28;20052;-47
2023/11/23 04:04:13;;;;;;;4.40;3.00;;;23.30;99.90;;;;;;5018676;28;20096;-47
2023/11/23 04:06:40;;;;;;;4.28;3.00;;;23.30;99.90;;;;;;5031664;28;20451;-47
2023/11/23 04:09:08;;;;;;;5.78;3.42;;;23.30;99.90;;;;;;5032216;28;20108;-46
2023/11/23 04:11:34;;;;;;;5.15;3.30;;;23.30;99.90;;;;;;5014268;28;20017;-47
2023/11/23 04:14:00;;;;;;;3.47;2.60;;;23.30;99.90;;;;;;5032163;28;20025;-47
2023/11/23 04:16:26;;;;;;;4.35;2.90;;;23.20;99.90;;;;;;5031892;28;20428;-47
2023/11/23 04:18:52;;;;;;;3.65;2.60;;;23.20;99.90;;;;;;5014555;28;20496;-49
2023/11/23 04:21:17;;;;;;;5.22;2.78;;;23.20;99.90;;;;;;5031856;28;20022;-46
2023/11/23 04:23:43;;;;;;;3.58;2.38;;;23.20;99.90;;;;;;5031894;28;20469;-47
2023/11/23 04:26:09;;;;;;;2.70;2.10;;;23.20;99.90;;;;;;5031865;28;20032;-47
2023/11/23 04:28:35;;;;;;;6.18;3.13;;;23.20;99.90;;;;;;5032029;28;20030;-47
2023/11/23 04:31:03;;;;;;;4.25;3.00;;;23.20;99.90;;;;;;5013430;28;20367;-46
2023/11/23 04:33:29;;;;;;;3.03;2.33;;;23.20;99.90;;;;;;5032026;28;20021;-47
2023/11/23 04:35:55;;;;;;;3.13;2.75;;;23.10;99.90;;;;;;5031803;28;20425;-46
2023/11/23 04:38:21;;;;;;;2.50;1.90;;;23.10;99.90;;;;;;5031638;28;20025;-47
2023/11/23 04:40:47;;;;;;;3.28;2.35;;;23.10;99.90;;;;;;5031853;28;20464;-47
2023/11/23 04:43:12;;;;;;;5.13;2.17;;;23.10;99.90;;;;;;5031590;28;20029;-46
2023/11/23 04:45:38;;;;;;;3.20;2.10;;;23.10;99.90;;;;;;5031835;28;20026;-47
2023/11/23 04:48:05;;;;;;;3.97;2.40;;;23.10;99.90;;;;;;5031730;28;20022;-47
2023/11/23 04:50:31;;;;;;;3.20;2.17;;;23.10;99.90;;;;;;5031563;28;20021;-46
2023/11/23 04:52:57;;;;;;;3.30;2.15;;;23.00;99.90;;;;;;5025459;28;20025;-46
2023/11/23 04:55:23;;;;;;;2.80;2.20;;;23.00;99.90;;;;;;5011995;28;20037;-47
2023/11/23 04:57:49;;;;;;;2.67;1.88;;;23.00;99.90;;;;;;5026145;28;20025;-46
2023/11/23 05:00:21;;;;;;;3.40;2.15;;;23.00;99.90;;;;;;5024357;28;20353;-46
2023/11/23 05:02:47;;;;;;;2.67;2.17;;;23.00;99.90;;;;;;5012058;28;20046;-46
2023/11/23 05:05:13;;;;;;;4.35;1.92;;;23.00;99.90;;;;;;5015490;28;20014;-46
2023/11/23 05:07:39;;;;;;;2.83;2.03;;;23.00;99.90;;;;;;5026454;28;20050;-46
2023/11/23 05:10:09;;;;;;;3.45;2.35;;;23.00;99.90;;;;;;5031503;28;20020;-46
2023/11/23 05:12:36;;;;;;;3.63;2.08;;;23.00;99.90;;;;;;5030956;28;20025;-46
2023/11/23 05:15:02;;;;;;;1.83;1.52;;;23.00;99.90;;;;;;5030893;28;20032;-47
2023/11/23 05:17:30;;;;;;;3.03;1.98;;;23.00;99.90;;;;;;5031456;28;20104;-46
2023/11/23 05:19:56;;;;;;;2.28;1.58;;;22.90;99.90;;;;;;5031329;28;20021;-46
2023/11/23 05:22:22;;;;;;;3.78;1.88;;;22.90;99.90;;;;;;5031370;28;20029;-46
2023/11/23 05:24:48;;;;;;;2.70;2.08;;;22.90;99.90;;;;;;5031143;28;20071;-46
2023/11/23 05:27:14;;;;;;;3.90;1.50;;;22.90;99.90;;;;;;5031233;28;20520;-47
2023/11/23 05:29:39;;;;;;;2.53;1.90;;;22.90;99.90;;;;;;5031491;28;20021;-46
2023/11/23 05:32:06;;;;;;;2.85;1.67;;;22.90;99.90;;;;;;5031310;28;20706;-47
2023/11/23 05:34:31;;;;;;;2.88;1.88;;;22.90;99.90;;;;;;5013626;28;20025;-46
2023/11/23 05:36:57;;;;;;;3.60;1.55;;;22.90;99.90;;;;;;5017418;28;20020;-47
2023/11/23 05:39:23;;;;;;;2.72;1.42;;;22.80;99.90;;;;;;5031180;28;20041;-46
2023/11/23 05:41:49;;;;;;;4.20;2.08;;;22.90;99.90;;;;;;5032710;28;20025;-47
2023/11/23 05:44:15;;;;;;;4.32;1.73;;;22.80;99.90;;;;;;5035057;28;20017;-46
2023/11/23 05:46:41;;;;;;;2.38;1.60;;;22.80;99.90;;;;;;5034780;28;20478;-46
2023/11/23 05:49:07;;;;;;;2.83;2.17;;;22.80;99.90;;;;;;5034919;28;20026;-46
2023/11/23 05:51:33;;;;;;;2.78;1.80;;;22.80;99.90;;;;;;5034651;28;20034;-47
2023/11/23 05:53:59;;;;;;;3.08;1.90;;;22.80;99.90;;;;;;5034756;28;20021;-46
2023/11/23 05:56:28;;;;;;;3.88;1.70;;;22.80;99.90;;;;;;5034697;28;20382;-47
2023/11/23 05:58:54;;;;;;;3.17;1.83;;;22.80;99.90;;;;;;5034333;28;20018;-47
2023/11/23 06:01:20;;;;;;;2.42;1.65;;;22.80;99.90;;;;;;5012000;28;20087;-46
2023/11/23 06:03:46;;;;;;;2.13;1.52;;;22.80;99.90;;;;;;5013727;28;20030;-47
2023/11/23 06:06:23;;;;;;;3.05;1.90;;;22.80;99.90;;;;;;5021227;28;20021;-48
2023/11/23 06:08:50;;;;;;;4.55;1.77;;;22.70;99.90;;;;;;5033030;28;20034;-47
2023/11/23 06:11:16;;;;;;;3.88;1.63;;;22.80;99.90;;;;;;5033432;28;20071;-47
2023/11/23 06:13:43;;;;;;;3.00;2.13;;;22.70;99.90;;;;;;5034459;28;20581;-47
2023/11/23 06:16:09;;;;;;;2.30;1.67;;;22.70;99.90;;;;;;5034437;28;20025;-47
2023/11/23 06:18:38;;;;;;;3.97;2.00;;;22.70;99.90;;;;;;5034244;28;20030;-47
2023/11/23 06:21:04;;;;;;;4.05;2.38;;;22.70;99.90;;;;;;5033968;28;20488;-47
2023/11/23 06:23:30;;;;;;;2.60;2.00;;;22.70;99.90;;;;;;5034081;28;20021;-47
2023/11/23 06:25:59;;;;;;;3.28;1.90;;;22.70;99.90;;;;;;5034139;28;20470;-47
2023/11/23 06:28:25;;;;;;;4.15;2.03;;;22.70;99.90;;;;;;5033958;28;20037;-47
2023/11/23 06:30:51;;;;;;;4.97;2.95;;;22.70;99.90;;;;;;5016443;28;20017;-47
2023/11/23 06:33:17;;;;;;;4.43;2.42;;;22.60;99.90;;;;;;5033979;28;20456;-47
2023/11/23 06:35:43;;;;;;;7.45;2.63;;;22.60;99.90;;;;;;5034012;28;20037;-47
2023/11/23 06:38:09;;;;;;;3.15;2.10;;;22.60;99.90;;;;;;5034074;28;20095;-46
2023/11/23 06:40:35;;;;;;;3.35;2.40;;;22.60;99.90;;;;;;5033879;28;20029;-46
2023/11/23 06:43:02;;;;;;;4.30;2.25;;;22.60;99.90;;;;;;5033829;28;20441;-47
2023/11/23 06:45:28;;;;;;;9.82;2.20;;;22.60;99.90;;;;;;5016216;28;20123;-46
2023/11/23 06:47:54;;;;;;;4.32;2.35;;;22.60;99.90;;;;;;5033616;28;20029;-47
2023/11/23 06:50:20;;;;;;;5.47;3.10;;;22.60;99.90;;;;;;5033442;28;20017;-46
2023/11/23 06:52:47;;;;;;;6.35;2.40;;;22.60;99.90;;;;;;5033123;28;20021;-47
2023/11/23 06:55:14;;;;;;;5.18;2.53;;;22.60;99.90;;;;;;5015383;28;20024;-46
2023/11/23 06:57:46;;;;;;;3.00;2.17;;;22.60;99.90;;;;;;5033829;28;20021;-46
2023/11/23 07:00:22;;;;;;;6.35;2.80;;;22.50;99.90;;;;;;4999988;28;20045;-47
2023/11/23 07:02:57;;;;;;;5.47;2.97;;;22.50;99.90;;;;;;5033409;28;20045;-47
2023/11/23 07:05:24;;;;;;;5.60;2.60;;;22.50;99.90;;;;;;5033071;28;20032;-47
2023/11/23 07:07:51;;;;;;;2.30;1.92;;;22.50;99.90;;;;;;5033166;28;20488;-47
2023/11/23 07:10:17;;;;;;;6.35;3.15;;;22.50;99.90;;;;;;5033501;28;20151;-47
2023/11/23 07:12:44;;;;;;;5.20;2.83;;;22.50;99.90;;;;;;5015237;28;20400;-46
2023/11/23 07:15:12;;;;;;;6.63;2.70;;;22.50;99.90;;;;;;5033364;28;20062;-46
2023/11/23 07:17:38;;;;;;;4.07;2.63;;;22.50;99.90;;;;;;5033161;28;20488;-46
2023/11/23 07:20:10;;;;;;;7.50;2.47;;;22.50;99.90;;;;;;5033266;28;20029;-46
2023/11/23 07:22:36;;;;;;;5.13;3.15;;;22.50;99.90;;;;;;5015506;28;20029;-47
2023/11/23 07:25:08;;;;;;;5.60;2.83;;;22.50;99.90;;;;;;5032817;28;20077;-47
2023/11/23 07:27:35;;;;;;;5.60;2.97;;;22.50;99.90;;;;;;5015839;28;20057;-47
2023/11/23 07:30:02;;;;;;;5.88;2.40;;;22.50;99.90;;;;;;5014932;28;20101;-47
2023/11/23 07:32:28;;;;;;;6.80;2.90;;;22.50;99.90;;;;;;5032897;28;20552;-47
2023/11/23 07:34:54;;;;;;;5.43;2.50;;;22.50;99.90;;;;;;5032679;28;20044;-47
2023/11/23 07:37:19;;;;;;;5.25;2.60;;;22.60;99.90;;;;;;5032735;28;20053;-47
2023/11/23 07:39:47;;;;;;;4.65;2.72;;;22.60;99.90;;;;;;5032649;28;20108;-47
2023/11/23 07:42:12;;;;;;;6.07;2.42;;;22.60;99.90;;;;;;5032589;28;20075;-47
2023/11/23 07:44:38;;;;;;;5.07;2.60;;;22.60;99.90;;;;;;5032884;28;20041;-47
2023/11/23 07:47:08;;;;;;;5.03;2.60;;;22.70;99.90;;;;;;5032262;28;20041;-47
2023/11/23 07:49:34;;;;;;;5.15;2.35;;;22.70;99.90;;;;;;5032330;28;20031;-47
2023/11/23 07:52:00;;;;;;;4.50;3.15;;;22.70;99.90;;;;;;5014524;28;20040;-48
2023/11/23 07:54:26;;;;;;;3.35;2.30;;;22.80;99.90;;;;;;5032202;28;20415;-48
2023/11/23 07:56:53;;;;;;;6.00;2.60;;;22.80;99.90;;;;;;5032093;28;20030;-47
2023/11/23 07:59:19;;;;;;;4.03;2.55;;;22.80;99.90;;;;;;5032098;28;20024;-47
2023/11/23 08:01:45;;;;;;;6.20;2.75;;;22.90;99.90;;;;;;5032002;28;20057;-47
2023/11/23 08:04:11;;;;;;;6.22;2.22;;;22.90;99.90;;;;;;5032428;28;20143;-47
2023/11/23 08:06:38;;;;;;;6.28;2.33;;;22.90;99.90;;;;;;5032408;28;20037;-47
2023/11/23 08:09:04;;;;;;;2.80;2.28;;;22.90;99.90;;;;;;5032141;28;20022;-47
2023/11/23 08:11:30;;;;;;;3.40;2.80;;;23.00;99.90;;;;;;5032133;28;20402;-47
2023/11/23 08:13:56;;;;;;;5.97;2.15;;;23.00;99.90;;;;;;5032071;28;20075;-47
2023/11/23 08:16:22;;;;;;;7.32;3.08;;;23.00;99.90;;;;;;5031944;28;20017;-47
2023/11/23 08:18:48;;;;;;;4.50;2.70;;;23.10;99.90;;;;;;5032148;28;20029;-47
2023/11/23 08:21:14;;;;;;;5.32;2.40;;;23.10;99.90;;;;;;5031830;28;20490;-47
2023/11/23 08:23:41;;;;;;;6.50;3.05;;;23.10;99.90;;;;;;5014678;28;20022;-47
2023/11/23 08:26:07;;;;;;;5.82;2.60;;;23.20;99.90;;;;;;5032041;28;20421;-47
2023/11/23 08:28:33;;;;;;;3.60;2.47;;;23.20;99.90;;;;;;5031866;28;20021;-47
2023/11/23 08:30:59;;;;;;;4.95;2.10;;;23.20;99.90;;;;;;5031843;28;20064;-47
2023/11/23 08:33:25;;;;;;;6.63;2.40;;;23.30;99.90;;;;;;5031736;28;20478;-48
2023/11/23 08:35:54;;;;;;;2.92;2.20;;;23.30;99.90;;;;;;5031733;28;20100;-47
2023/11/23 08:38:20;;;;;;;5.80;2.95;;;23.30;99.90;;;;;;5031473;28;20022;-48
2023/11/23 08:40:46;;;;;;;3.67;2.60;;;23.40;99.90;;;;;;5031660;28;20474;-47
2023/11/23 08:43:12;;;;;;;4.18;2.50;;;23.40;99.90;;;;;;5031446;28;20084;-47
2023/11/23 08:45:38;;;;;;;6.25;2.60;;;23.40;99.90;;;;;;5031752;28;20057;-47
2023/11/23 08:48:04;;;;;;;6.38;2.50;;;23.50;99.90;;;;;;5031590;28;20470;-48
2023/11/23 08:50:30;;;;;;;4.50;2.78;;;23.50;99.90;;;;;;5013669;28;20026;-47
2023/11/23 08:52:57;;;;;;;7.13;3.20;;;23.50;99.90;;;;;;5031765;28;20044;-47
2023/11/23 08:55:24;;;;;;;4.18;2.20;;;23.60;99.90;;;;;;5031475;28;20474;-47
2023/11/23 08:57:53;;;;;;;3.65;2.20;;;23.60;99.90;;;;;;5031579;28;20140;-47
2023/11/23 09:00:27;;;;;;;5.32;2.60;;;23.60;99.90;;;;;;5031254;28;20486;-47
2023/11/23 09:02:54;;;;;;;3.38;2.20;;;23.70;99.90;;;;;;5014717;28;20072;-47
2023/11/23 09:05:21;;;;;;;5.45;2.30;;;23.70;99.90;;;;;;5031259;28;20022;-47
2023/11/23 09:07:50;;;;;;;3.92;2.70;;;23.70;99.90;;;;;;5031296;28;20029;-47
2023/11/23 09:10:17;;;;;;;3.78;2.28;;;23.80;99.90;;;;;;5031339;28;20466;-47
2023/11/23 09:12:43;;;;;;;3.10;2.20;;;23.80;99.90;;;;;;5031214;28;20029;-48
2023/11/23 09:15:10;;;;;;;4.82;2.42;;;23.80;99.90;;;;;;5031559;28;20025;-47
2023/11/23 09:17:36;;;;;;;5.30;2.30;;;23.90;99.90;;;;;;5034024;28;20025;-47
2023/11/23 09:20:04;;;;;;;4.95;2.50;;;23.90;99.90;;;;;;5035246;28;20029;-47
2023/11/23 09:22:33;;;;;;;4.75;2.20;;;23.90;99.90;;;;;;5035303;28;20390;-47
2023/11/23 09:25:00;;;;;;;4.65;2.40;;;24.00;99.90;;;;;;5035037;28;20017;-47
2023/11/23 09:27:26;;;;;;;3.90;2.27;;;24.00;99.90;;;;;;5034993;28;20057;-47
2023/11/23 09:29:52;;;;;;;6.45;2.40;;;24.00;99.90;;;;;;5017301;28;20278;-47
2023/11/23 09:32:17;;;;;;;3.95;2.03;;;24.10;99.90;;;;;;5034933;28;20108;-47
2023/11/23 09:34:44;;;;;;;4.28;2.63;;;24.10;99.90;;;;;;5034805;28;20030;-47
2023/11/23 09:37:10;;;;;;;4.88;2.30;;;24.20;99.90;;;;;;5034993;28;20079;-47
2023/11/23 09:39:36;;;;;;;3.60;2.15;;;24.20;99.90;;;;;;5034919;28;20459;-47
2023/11/23 09:42:05;;;;;;;3.22;2.20;;;24.20;99.90;;;;;;5034796;28;20079;-47
2023/11/23 09:44:34;;;;;;;4.03;2.17;;;24.30;99.90;;;;;;5034881;28;20830;-48
2023/11/23 09:47:01;;;;;;;5.43;2.10;;;24.30;99.90;;;;;;5034543;28;20021;-48
2023/11/23 09:49:27;;;;;;;4.97;2.23;;;24.30;99.90;;;;;;5034584;28;20029;-47
2023/11/23 09:52:01;;;;;;;4.55;2.35;;;24.40;99.90;;;;;;5034403;28;20410;-48
2023/11/23 09:54:31;;;;;;;5.18;2.28;;;24.40;99.90;;;;;;5016719;28;20473;-47
2023/11/23 09:56:57;;;;;;;8.07;2.08;;;24.50;99.90;;;;;;5034444;28;20436;-48
2023/11/23 09:59:23;;;;;;;2.75;1.98;;;24.50;99.90;;;;;;5034601;28;20045;-47
2023/11/23 10:01:54;;;;;;;7.95;2.30;;;24.60;99.90;;;;;;5034200;28;20111;-47
2023/11/23 10:04:20;;;;;;;4.03;2.40;;;24.60;99.90;;;;;;5034418;28;20013;-48
2023/11/23 10:06:46;;;;;;;10.55;2.42;;;24.70;99.90;;;;;;5034165;28;20033;-48
2023/11/23 10:09:16;;;;;;;2.65;2.00;;;24.70;99.90;;;;;;5034269;28;20100;-47
2023/11/23 10:11:42;;;;;;;4.70;2.42;;;24.80;99.90;;;;;;5034202;28;20036;-47
2023/11/23 10:14:09;;;;;;;3.40;1.98;;;24.80;99.90;;;;;;5034124;28;20041;-47
2023/11/23 10:16:36;;;;;;;4.15;1.77;;;24.90;99.90;;;;;;5034241;28;20048;-47
2023/11/23 10:19:03;;;;;;;6.22;2.40;;;24.90;99.90;;;;;;5034087;28;20022;-46
2023/11/23 10:21:32;;;;;;;7.25;2.22;;;25.00;99.90;;;;;;5034023;28;20021;-47
2023/11/23 10:24:07;;;;;;;5.63;1.73;;;25.00;99.90;;;;;;5016472;28;20025;-47
2023/11/23 10:26:34;;;;;;;4.47;1.85;;;25.10;99.90;;;;;;5033520;28;20079;-47
2023/11/23 10:29:00;;;;;;;5.63;1.92;;;25.10;99.90;;;;;;5022207;28;20025;-47
2023/11/23 10:31:25;;;;;;;4.18;2.65;;;25.20;99.90;;;;;;5025036;28;20036;-47
2023/11/23 10:33:52;;;;;;;6.25;1.90;;;25.30;99.90;;;;;;5028846;28;20377;-46
2023/11/23 10:36:20;;;;;;;5.97;2.25;;;25.30;99.90;;;;;;5031262;28;20342;-47
2023/11/23 10:38:46;;;;;;;5.45;2.05;;;25.30;99.90;;;;;;5031582;28;20030;-47
2023/11/23 10:41:14;;;;;;;2.63;1.92;;;25.40;99.90;;;;;;5032060;28;20056;-47
2023/11/23 10:43:42;;;;;;;5.68;2.15;;;25.40;99.90;;;;;;5030470;28;20071;-48
2023/11/23 10:46:09;;;;;;;8.25;2.05;;;25.40;99.90;;;;;;5032176;28;20042;-48
2023/11/23 10:48:36;;;;;;;12.15;2.20;;;25.50;99.90;;;;;;5030730;28;20056;-47
2023/11/23 10:51:04;;;;;;;10.38;2.17;;;25.50;99.90;;;;;;5031817;28;20022;-48
2023/11/23 10:53:31;;;;;;;8.63;2.40;;;25.60;99.90;;;;;;5030442;28;20029;-47
2023/11/23 10:56:29;;;;;;;6.10;2.35;;;25.60;99.90;;;;;;5025945;28;20030;-48
2023/11/23 10:59:00;;;;;;;5.40;1.98;;;25.60;99.90;;;;;;5019776;28;20041;-48
2023/11/23 11:01:27;;;;;;;4.07;2.47;;;25.70;99.90;;;;;;5032425;28;20409;-48
2023/11/23 11:03:54;;;;;;;6.67;2.47;;;25.70;99.90;;;;;;5029237;28;20459;-49
2023/11/23 11:06:23;;;;;;;6.40;3.17;;;25.70;99.90;;;;;;5019466;28;20275;-48
2023/11/23 11:08:49;;;;;;;5.13;2.08;;;25.80;99.90;;;;;;5005496;28;20130;-46
2023/11/23 11:11:23;;;;;;;4.63;1.95;;;25.80;99.90;;;;;;5000542;28;20014;-48
2023/11/23 11:13:49;;;;;;;7.00;2.35;;;25.80;99.90;;;;;;5012637;28;20034;-48
2023/11/23 11:16:17;;;;;;;5.50;2.33;;;25.90;99.90;;;;;;5016872;28;20029;-48
2023/11/23 11:18:53;;;;;;;4.13;2.15;;;25.90;99.90;;;;;;5019272;28;20071;-49
2023/11/23 11:21:20;;;;;;;4.40;2.10;;;25.90;99.90;;;;;;5004417;28;20056;-50
2023/11/23 11:23:51;;;;;;;4.57;2.20;;;25.90;99.90;;;;;;5014781;28;20079;-49
2023/11/23 11:26:20;;;;;;;3.75;1.80;;;26.00;99.90;;;;;;5026430;28;20148;-47
2023/11/23 11:28:54;;;;;;;5.53;2.13;;;26.00;99.90;;;;;;5023410;28;20034;-47
2023/11/23 11:31:41;;;;;;;4.63;2.28;;;26.00;99.90;;;;;;5024017;28;20030;-47
2023/11/23 11:34:21;;;;;;;7.75;2.80;;;26.10;99.90;;;;;;5020762;28;20030;-47
2023/11/23 11:37:01;;;;;;;5.13;2.10;;;26.10;99.90;;;;;;5015414;28;20490;-47
2023/11/23 11:39:32;;;;;;;5.65;2.20;;;26.10;99.90;;;;;;5015841;28;20445;-48
2023/11/23 11:41:59;;;;;;;3.58;1.63;;;26.20;99.90;;;;;;5016388;28;20076;-48
2023/11/23 11:44:26;;;;;;;;;;;26.20;99.90;;;;;;5013788;28;20057;-49
2023/11/23 11:46:52;;;;;;;3.28;2.20;;;26.20;99.90;;;;;;5016414;28;19917;-48
2023/11/23 11:49:18;;;;;;;6.97;1.95;;;26.20;99.90;;;;;;5015407;28;20085;-48
2023/11/23 11:51:44;;;;;;;3.60;1.90;;;26.30;99.90;;;;;;4998772;28;20474;-48
2023/11/23 11:54:09;;;;;;;6.07;2.22;;;26.30;99.90;;;;;;5006416;28;20026;-48
2023/11/23 11:56:37;;;;;;;7.97;2.20;;;26.30;99.90;;;;;;5012398;28;20049;-49
2023/11/23 11:59:04;;;;;;;40.47;5.05;;;26.30;99.90;;;;;;5015867;28;20027;-48
2023/11/23 12:01:30;;;;;;;30.35;4.00;;;26.30;99.90;;;;;;5014813;28;20091;-48
2023/11/23 12:03:56;;;;;;;20.02;3.85;;;26.40;99.90;;;;;;5017317;28;20022;-49
2023/11/23 12:06:22;;;;;;;18.08;3.53;;;26.40;99.90;;;;;;5015010;28;20026;-50
2023/11/23 12:08:49;;;;;;;15.82;4.32;;;26.40;99.90;;;;;;5023167;28;20175;-48
2023/11/23 12:11:26;;;;;;;25.90;5.95;;;26.40;99.90;;;;;;5022913;28;20022;-48
2023/11/23 12:13:55;;;;;;;12.90;3.58;;;26.50;99.90;;;;;;5025225;28;20064;-49
2023/11/23 12:16:31;;;;;;;21.65;4.20;;;26.50;99.90;;;;;;5024660;28;20017;-48
2023/11/23 12:18:56;;;;;;;15.48;3.90;;;26.50;99.90;;;;;;5027568;28;20021;-48
2023/11/23 12:21:22;;;;;;;15.15;4.32;;;26.50;99.90;;;;;;5026268;28;20048;-49
2023/11/23 12:23:48;;;;;;;11.48;3.53;;;26.60;99.90;;;;;;5026175;28;20080;-48
2023/11/23 12:26:14;;;;;;;14.55;4.20;;;26.60;99.90;;;;;;5024346;28;20056;-48
2023/11/23 12:28:41;;;;;;;14.77;3.97;;;26.60;99.90;;;;;;5027099;28;20028;-48
2023/11/23 12:31:10;;;;;;;9.45;4.18;;;26.60;99.90;;;;;;5021202;28;20482;-47
2023/11/23 12:33:35;;;;;;;13.27;4.35;;;26.60;99.90;;;;;;5027434;28;20521;-48
2023/11/23 12:36:02;;;;;;;35.55;9.77;;;26.70;99.90;;;;;;5017988;28;20152;-48
2023/11/23 12:38:27;;;;;;;30.02;6.25;;;26.70;99.90;;;;;;4996448;28;20017;-49
2023/11/23 12:40:53;;;;;;;19.50;5.63;;;26.70;99.90;;;;;;5012670;28;20029;-48
2023/11/23 12:43:22;;;;;;;26.30;6.57;;;26.70;99.90;;;;;;5014324;28;20033;-48